<?xml version="1.0" encoding="utf-8"?>
<gpx xmlns:xsi="http://www.w3.org/2001/XMLSchema-instance" xmlns:xsd="http://www.w3.org/2001/XMLSchema" version="1.1" creator="Shapelink.com" xmlns="http://www.topografix.com/GPX/1/1" xmlns:gpxtpx="http://www.garmin.com/xmlschemas/TrackPointExtension/v1">
  <metadata>
    <name>Övrigt 1.25 km, 2020-06-30</name>
    <desc></desc>
    <author><name>Marian Moron</name></author> 
    <time>2020-06-30T20:16:13Z</time>
  </metadata>
  <trk>
    <name>Övrigt 1.25 km, 2020-06-30</name>
    <trkseg>
      <trkpt lat="51.229923187018" lon="4.458497146697">
        <ele>26.8</ele>
        <time>2020-06-30T20:16:13Z</time>
      </trkpt>
      <trkpt lat="51.230037097039" lon="4.459051106468">
        <ele>21.8</ele>
        <time>2020-06-30T20:16:53Z</time>
      </trkpt>
      <trkpt lat="51.230424508457" lon="4.459164597394">
        <ele>16.4</ele>
        <time>2020-06-30T20:17:31Z</time>
      </trkpt>
      <trkpt lat="51.230421574792" lon="4.459251517697">
        <ele>15.8</ele>
        <time>2020-06-30T20:18:03Z</time>
      </trkpt>
      <trkpt lat="51.230466669414" lon="4.459739595734">
        <ele>14.6</ele>
        <time>2020-06-30T20:18:30Z</time>
      </trkpt>
      <trkpt lat="51.23055250007" lon="4.45993858204">
        <ele>12.6</ele>
        <time>2020-06-30T20:18:44Z</time>
      </trkpt>
      <trkpt lat="51.230675965457" lon="4.459976887323">
        <ele>11</ele>
        <time>2020-06-30T20:18:57Z</time>
      </trkpt>
      <trkpt lat="51.23058938043" lon="4.460087863679">
        <ele>9.4</ele>
        <time>2020-06-30T20:19:13Z</time>
      </trkpt>
      <trkpt lat="51.230604970764" lon="4.460799989903">
        <ele>6.6</ele>
        <time>2020-06-30T20:19:56Z</time>
      </trkpt>
      <trkpt lat="51.230469351622" lon="4.460949606818">
        <ele>5.2</ele>
        <time>2020-06-30T20:20:35Z</time>
      </trkpt>
      <trkpt lat="51.230025949112" lon="4.461128728021">
        <ele>3.8</ele>
        <time>2020-06-30T20:21:05Z</time>
      </trkpt>
      <trkpt lat="51.229913883109" lon="4.461158399947">
        <ele>3.2</ele>
        <time>2020-06-30T20:21:17Z</time>
      </trkpt>
      <trkpt lat="51.229536446152" lon="4.461294689641">
        <ele>1.8</ele>
        <time>2020-06-30T20:21:45Z</time>
      </trkpt>
      <trkpt lat="51.229489591331" lon="4.461327798146">
        <ele>1.4</ele>
        <time>2020-06-30T20:21:51Z</time>
      </trkpt>
      <trkpt lat="51.229410466195" lon="4.461327211413">
        <ele>0</ele>
        <time>2020-06-30T20:21:59Z</time>
      </trkpt>
      <trkpt lat="51.229278283632" lon="4.46137607789">
        <ele>0</ele>
        <time>2020-06-30T20:22:10Z</time>
      </trkpt>
      <trkpt lat="51.229068233218" lon="4.461371970759">
        <ele>6.2</ele>
        <time>2020-06-30T20:22:59Z</time>
      </trkpt>
      <trkpt lat="51.229039399482" lon="4.461372138397">
        <ele>7</ele>
        <time>2020-06-30T20:23:01Z</time>
      </trkpt>
      <trkpt lat="51.228629524572" lon="4.461455203026">
        <ele>13.6</ele>
        <time>2020-06-30T20:23:56Z</time>
      </trkpt>
      <trkpt lat="51.228342779773" lon="4.461296198383">
        <ele>0</ele>
        <time>2020-06-30T20:24:27Z</time>
      </trkpt>
      <trkpt lat="51.228318891358" lon="4.461187066045">
        <ele>0</ele>
        <time>2020-06-30T20:24:37Z</time>
      </trkpt>
      <trkpt lat="51.228185032415" lon="4.46083376896">
        <ele>0</ele>
        <time>2020-06-30T20:25:09Z</time>
      </trkpt>
      <trkpt lat="51.228135579205" lon="4.460784148112">
        <ele>0</ele>
        <time>2020-06-30T20:25:16Z</time>
      </trkpt>
      <trkpt lat="51.227835423366" lon="4.460676021602">
        <ele>4.4</ele>
        <time>2020-06-30T20:26:35Z</time>
      </trkpt>
      <trkpt lat="51.227783623224" lon="4.460758415679">
        <ele>4.4</ele>
        <time>2020-06-30T20:26:57Z</time>
      </trkpt>
      <trkpt lat="51.227674071791" lon="4.460817759531">
        <ele>3.4</ele>
        <time>2020-06-30T20:27:11Z</time>
      </trkpt>
      <trkpt lat="51.227554378259" lon="4.460931418095">
        <ele>7.6</ele>
        <time>2020-06-30T20:27:29Z</time>
      </trkpt>
      <trkpt lat="51.227391769399" lon="4.461148676943">
        <ele>6.8</ele>
        <time>2020-06-30T20:27:46Z</time>
      </trkpt>
      <trkpt lat="51.227376681979" lon="4.461161585069">
        <ele>6.4</ele>
        <time>2020-06-30T20:27:48Z</time>
      </trkpt>
      <trkpt lat="51.227358325618" lon="4.46131405183">
        <ele>5</ele>
        <time>2020-06-30T20:27:55Z</time>
      </trkpt>
      <trkpt lat="51.227341980913" lon="4.461225287509">
        <ele>0</ele>
        <time>2020-06-30T20:28:25Z</time>
      </trkpt>
      <trkpt lat="51.227347010053" lon="4.460492206535">
        <ele>0</ele>
        <time>2020-06-30T20:29:04Z</time>
      </trkpt>
      <trkpt lat="51.22721734206" lon="4.459786282917">
        <ele>0</ele>
        <time>2020-06-30T20:29:49Z</time>
      </trkpt>
      <trkpt lat="51.227150957412" lon="4.459217571002">
        <ele>0</ele>
        <time>2020-06-30T20:30:27Z</time>
      </trkpt>
      <trkpt lat="51.227523029953" lon="4.45890341739">
        <ele>18.4</ele>
        <time>2020-06-30T20:31:11Z</time>
      </trkpt>
      <trkpt lat="51.227953691975" lon="4.458658917367">
        <ele>11.6</ele>
        <time>2020-06-30T20:31:50Z</time>
      </trkpt>
      <trkpt lat="51.228221828956" lon="4.458454566645">
        <ele>7.6</ele>
        <time>2020-06-30T20:32:13Z</time>
      </trkpt>
      <trkpt lat="51.22853246217" lon="4.458287850654">
        <ele>4.4</ele>
        <time>2020-06-30T20:32:38Z</time>
      </trkpt>
      <trkpt lat="51.228651233693" lon="4.458260106565">
        <ele>8.4</ele>
        <time>2020-06-30T20:32:50Z</time>
      </trkpt>
      <trkpt lat="51.229100419714" lon="4.458090540728">
        <ele>8.6</ele>
        <time>2020-06-30T20:33:23Z</time>
      </trkpt>
      <trkpt lat="51.229438042646" lon="4.457983000951">
        <ele>11.8</ele>
        <time>2020-06-30T20:33:50Z</time>
      </trkpt>
      <trkpt lat="51.229782454917" lon="4.457793570011">
        <ele>9.6</ele>
        <time>2020-06-30T20:34:20Z</time>
      </trkpt>
      <trkpt lat="51.229754207914" lon="4.457551584558">
        <ele>0</ele>
        <time>2020-06-30T20:34:45Z</time>
      </trkpt>
      <trkpt lat="51.229841295855" lon="4.457526438858">
        <ele>0</ele>
        <time>2020-06-30T20:35:04Z</time>
      </trkpt>
      <trkpt lat="51.229898125137" lon="4.457755683823">
        <ele>0</ele>
        <time>2020-06-30T20:35:21Z</time>
      </trkpt>
      <trkpt lat="51.229901813173" lon="4.457868839473">
        <ele>0</ele>
        <time>2020-06-30T20:35:26Z</time>
      </trkpt>
      <trkpt lat="51.22973861758" lon="4.457987610996">
        <ele>0</ele>
        <time>2020-06-30T20:35:53Z</time>
      </trkpt>
      <trkpt lat="51.229780862356" lon="4.458020048949">
        <ele>0</ele>
        <time>2020-06-30T20:35:57Z</time>
      </trkpt>
      <trkpt lat="51.229806594789" lon="4.457959447812">
        <ele>0</ele>
        <time>2020-06-30T20:36:00Z</time>
      </trkpt>
      <trkpt lat="51.229820676381" lon="4.457857104813">
        <ele>0</ele>
        <time>2020-06-30T20:36:09Z</time>
      </trkpt>
    </trkseg>
  </trk>
</gpx>